createdAt,value
2024-03-12T00:00:19.293Z,100102.84
2024-03-12T00:02:52.255Z,100105.53
2024-03-12T00:05:23.944Z,100110.19
2024-03-12T00:07:55.195Z,100110.38
2024-03-12T00:10:26.442Z,100107.50
2024-03-12T00:12:57.841Z,100106.50
2024-03-12T00:15:28.810Z,100109.34
2024-03-12T00:18:06.336Z,100105.69
2024-03-12T00:20:40.717Z,100110.91
2024-03-12T00:23:11.559Z,100110.03
2024-03-12T00:25:42.212Z,100109.22
2024-03-12T00:28:13.304Z,100117.28
2024-03-12T00:30:44.405Z,100108.50
2024-03-12T00:33:17.426Z,100110.19
2024-03-12T00:35:48.035Z,100106.66
2024-03-12T00:38:19.498Z,100112.88
2024-03-12T00:40:51.946Z,100099.44
2024-03-12T00:43:22.417Z,100104.81
2024-03-12T00:45:52.790Z,100101.97
2024-03-12T00:48:26.683Z,100096.75
2024-03-12T00:50:57.015Z,100095.75
2024-03-12T00:53:27.614Z,100087.69
2024-03-12T00:55:59.634Z,100087.00
2024-03-12T00:58:30.055Z,100082.16
2024-03-12T01:01:00.644Z,100082.16
2024-03-12T01:03:33.645Z,100083.81
2024-03-12T01:06:04.039Z,100082.00
2024-03-12T01:08:35.273Z,100090.91
2024-03-12T01:11:07.067Z,100080.84
2024-03-12T01:13:35.436Z,100075.47
2024-03-12T01:16:06.057Z,100068.22
2024-03-12T01:18:39.803Z,100076.16
2024-03-12T01:21:10.648Z,100075.00
2024-03-12T01:23:41.487Z,100080.09
2024-03-12T01:26:11.810Z,100070.34
2024-03-12T01:28:42.713Z,100073.03
2024-03-12T01:31:13.726Z,100065.66
2024-03-12T01:33:48.245Z,100061.94
2024-03-12T01:36:31.084Z,100066.16
2024-03-12T01:39:05.373Z,100061.63
2024-03-12T01:41:43.277Z,100057.94
2024-03-12T01:44:13.850Z,100055.09
2024-03-12T01:46:44.387Z,100054.25
2024-03-12T01:49:19.052Z,100061.28
2024-03-12T01:51:50.623Z,100057.63
2024-03-12T01:54:21.002Z,100052.25
2024-03-12T01:56:51.347Z,100055.59
2024-03-12T01:59:21.695Z,100046.84
2024-03-12T02:01:52.817Z,100049.53
2024-03-12T02:04:25.859Z,100036.94
2024-03-12T02:06:56.290Z,100033.25
2024-03-12T02:09:27.449Z,100031.41
2024-03-12T02:11:57.853Z,100023.31
2024-03-12T02:14:28.168Z,100021.47
2024-03-12T02:16:58.551Z,100019.94
2024-03-12T02:19:31.455Z,100026.31
2024-03-12T02:22:02.167Z,100018.09
2024-03-12T02:24:36.856Z,100018.25
2024-03-12T02:27:07.727Z,100021.97
2024-03-12T02:29:38.011Z,100013.72
2024-03-12T02:32:09.103Z,100008.34
2024-03-12T02:34:39.857Z,100004.13
2024-03-12T02:37:11.084Z,100010.84
2024-03-12T02:39:44.094Z,100006.81
2024-03-12T02:42:14.394Z,100003.13
2024-03-12T02:44:44.736Z,99995.88
2024-03-12T02:47:15.078Z,100000.44
2024-03-12T02:49:45.417Z,100000.44
2024-03-12T02:52:15.713Z,99991.34
2024-03-12T02:54:48.697Z,99989.66
2024-03-12T02:57:19.093Z,99990.34
2024-03-12T02:59:49.548Z,99979.75
2024-03-12T03:02:19.872Z,99975.19
2024-03-12T03:04:51.235Z,99974.88
2024-03-12T03:07:21.811Z,99965.13
2024-03-12T03:09:54.759Z,99954.34
2024-03-12T03:12:25.134Z,99953.53
2024-03-12T03:14:55.422Z,99949.69
2024-03-12T03:17:25.939Z,99936.91
2024-03-12T03:19:56.414Z,99931.84
2024-03-12T03:22:26.718Z,99932.66
2024-03-12T03:24:59.769Z,99933.00
2024-03-12T03:27:30.164Z,99924.75
2024-03-12T03:30:01.202Z,99906.94
2024-03-12T03:32:31.865Z,99908.81
2024-03-12T03:35:04.000Z,99899.72
2024-03-12T03:37:36.872Z,99897.53
2024-03-12T03:40:24.384Z,99889.63
2024-03-12T03:42:57.922Z,99882.56
2024-03-12T03:45:28.725Z,99872.50
2024-03-12T03:47:59.111Z,99859.88
2024-03-12T03:50:29.809Z,99868.97
2024-03-12T03:53:00.188Z,99860.69
2024-03-12T03:55:33.170Z,99856.50
2024-03-12T03:58:03.577Z,99859.88
2024-03-12T04:00:37.206Z,99851.63
2024-03-12T04:03:08.686Z,99858.38
2024-03-12T04:05:39.098Z,99860.38
2024-03-12T04:08:10.845Z,99854.84
2024-03-12T04:10:44.396Z,99849.63
2024-03-12T04:13:16.068Z,99834.00
2024-03-12T04:15:49.222Z,99834.66
2024-03-12T04:18:20.310Z,99830.63
2024-03-12T04:20:50.917Z,99820.91
2024-03-12T04:23:22.191Z,99819.88
2024-03-12T04:25:55.513Z,99819.88
2024-03-12T04:28:25.821Z,99822.56
2024-03-12T04:30:56.185Z,99829.28
2024-03-12T04:33:27.095Z,99812.31
2024-03-12T04:35:57.717Z,99826.28
2024-03-12T04:38:28.010Z,99820.91
2024-03-12T04:41:01.149Z,99812.00
2024-03-12T04:43:31.480Z,99818.22
2024-03-12T04:46:01.943Z,99818.06
2024-03-12T04:48:32.512Z,99803.56
2024-03-12T04:51:02.902Z,99802.56
2024-03-12T04:53:33.231Z,99799.22
2024-03-12T04:56:09.510Z,99796.34
2024-03-12T04:58:40.347Z,99803.41
2024-03-12T05:01:11.417Z,99798.84
2024-03-12T05:03:41.750Z,99791.81
2024-03-12T05:06:12.069Z,99787.94
2024-03-12T05:08:42.335Z,99785.59
2024-03-12T05:11:16.614Z,99778.34
2024-03-12T05:13:47.297Z,99788.09
2024-03-12T05:16:17.701Z,99776.50
2024-03-12T05:18:48.114Z,99776.16
2024-03-12T05:21:18.480Z,99772.63
2024-03-12T05:23:48.853Z,99770.13
2024-03-12T05:26:25.155Z,99763.88
2024-03-12T05:28:55.925Z,99761.69
2024-03-12T05:31:32.915Z,99755.47
2024-03-12T05:34:04.341Z,99752.78
2024-03-12T05:36:42.485Z,99748.06
2024-03-12T05:39:20.461Z,99751.28
2024-03-12T05:42:13.444Z,99748.06
2024-03-12T05:44:56.169Z,99749.91
2024-03-12T05:47:42.648Z,99749.75
2024-03-12T05:50:13.432Z,99744.53
2024-03-12T05:52:43.844Z,99737.28
2024-03-12T05:55:16.917Z,99730.06
2024-03-12T05:57:50.804Z,99729.22
2024-03-12T06:00:21.738Z,99728.22
2024-03-12T06:02:52.057Z,99717.78
2024-03-12T06:05:22.409Z,99712.91
2024-03-12T06:07:53.981Z,99707.53
2024-03-12T06:10:24.409Z,99712.91
2024-03-12T06:12:57.594Z,99698.63
2024-03-12T06:15:27.953Z,99698.63
2024-03-12T06:17:58.347Z,99703.50
2024-03-12T06:20:30.070Z,99695.06
2024-03-12T06:23:00.890Z,99687.66
2024-03-12T06:25:31.182Z,99686.66
2024-03-12T06:28:06.972Z,99680.94
2024-03-12T06:30:37.472Z,99676.56
2024-03-12T06:33:08.786Z,99674.53
2024-03-12T06:35:39.372Z,99662.59
2024-03-12T06:38:09.701Z,99667.13
2024-03-12T06:40:40.621Z,99671.16
2024-03-12T06:43:15.372Z,99667.97
2024-03-12T06:45:46.478Z,99667.97
2024-03-12T06:48:19.841Z,99656.84
2024-03-12T06:50:51.283Z,99662.91
2024-03-12T06:53:23.208Z,99663.75
2024-03-12T06:55:53.935Z,99663.22
2024-03-12T06:58:29.369Z,99661.00
2024-03-12T07:00:59.804Z,99657.31
2024-03-12T07:03:32.758Z,99657.63
2024-03-12T07:06:04.582Z,99653.09
2024-03-12T07:08:34.849Z,99653.75
2024-03-12T07:11:05.300Z,99646.34
2024-03-12T07:13:41.732Z,99638.94
2024-03-12T07:16:13.840Z,99642.47
2024-03-12T07:18:45.101Z,99649.38
2024-03-12T07:21:15.424Z,99628.66
2024-03-12T07:23:45.734Z,99632.66
2024-03-12T07:26:16.342Z,99629.63
2024-03-12T07:28:49.236Z,99642.09
2024-03-12T07:31:21.399Z,99627.59
2024-03-12T07:33:51.798Z,99628.28
2024-03-12T07:36:22.349Z,99629.59
2024-03-12T07:38:54.365Z,99619.16
2024-03-12T07:41:24.764Z,99626.56
2024-03-12T07:43:57.743Z,99621.84
2024-03-12T07:46:28.016Z,99618.75
2024-03-12T07:48:58.301Z,99614.03
2024-03-12T07:51:31.058Z,99609.50
2024-03-12T07:54:07.863Z,99609.13
2024-03-12T07:56:38.449Z,99610.66
2024-03-12T07:59:12.593Z,99610.94
2024-03-12T08:01:42.955Z,99614.34
2024-03-12T08:04:14.547Z,99611.63
2024-03-12T08:06:45.223Z,99611.25
2024-03-12T08:09:16.433Z,99615.47
2024-03-12T08:11:46.782Z,99611.25
2024-03-12T08:14:21.063Z,99616.44
2024-03-12T08:16:51.399Z,99614.22
2024-03-12T08:19:26.844Z,99610.88
2024-03-12T08:21:57.317Z,99607.94
2024-03-12T08:24:30.718Z,99615.03
2024-03-12T08:27:01.265Z,99614.47
2024-03-12T08:29:34.489Z,99615.59
2024-03-12T08:32:05.290Z,99607.34
2024-03-12T08:34:38.164Z,99607.16
2024-03-12T08:37:10.763Z,99620.09
2024-03-12T08:39:41.994Z,99615.75
2024-03-12T08:42:12.354Z,99611.31
2024-03-12T08:44:45.312Z,99609.09
2024-03-12T08:47:15.795Z,99604.72
2024-03-12T08:49:46.860Z,99611.25
2024-03-12T08:52:17.267Z,99610.03
2024-03-12T08:54:48.122Z,99600.53
2024-03-12T08:57:18.477Z,99608.47
2024-03-12T08:59:52.072Z,99613.69
2024-03-12T09:02:22.483Z,99612.13
2024-03-12T09:04:52.777Z,99618.00
2024-03-12T09:07:23.400Z,99618.47
2024-03-12T09:09:53.835Z,99620.13
2024-03-12T09:12:24.918Z,99627.72
2024-03-12T09:14:57.867Z,99630.88
2024-03-12T09:17:29.176Z,99627.81
2024-03-12T09:19:59.558Z,99632.03
2024-03-12T09:22:29.964Z,99629.97
2024-03-12T09:25:00.938Z,99632.28
2024-03-12T09:27:32.337Z,99626.88
2024-03-12T09:30:05.457Z,99622.63
2024-03-12T09:32:35.882Z,99629.06
2024-03-12T09:35:06.773Z,99628.31
2024-03-12T09:37:37.591Z,99629.00
2024-03-12T09:40:09.460Z,99624.06
2024-03-12T09:42:40.493Z,99628.28
2024-03-12T09:45:14.079Z,99629.94
2024-03-12T09:47:46.107Z,99631.25
2024-03-12T09:50:18.509Z,99638.34
2024-03-12T09:52:50.145Z,99622.44
2024-03-12T09:55:22.963Z,99616.09
2024-03-12T09:57:53.355Z,99629.50
2024-03-12T10:00:29.704Z,99613.38
2024-03-12T10:03:01.189Z,99617.66
2024-03-12T10:05:33.338Z,99633.78
2024-03-12T10:08:16.694Z,99635.28
2024-03-12T10:10:49.577Z,99641.97
2024-03-12T10:13:22.025Z,99636.47
2024-03-12T10:15:58.411Z,99638.59
2024-03-12T10:18:31.110Z,99637.19
2024-03-12T10:21:03.940Z,99630.19
2024-03-12T10:23:38.410Z,99630.28
2024-03-12T10:26:12.869Z,99629.88
2024-03-12T10:28:46.072Z,99632.09
2024-03-12T10:31:21.617Z,99625.28
2024-03-12T10:33:52.658Z,99630.59
2024-03-12T10:36:34.990Z,99625.22
2024-03-12T10:39:08.514Z,99626.31
2024-03-12T10:41:39.545Z,99626.22
2024-03-12T10:44:12.896Z,99631.13
2024-03-12T10:46:49.458Z,99624.91
2024-03-12T10:49:27.321Z,99619.34
2024-03-12T10:52:00.153Z,99620.25
2024-03-12T10:54:36.429Z,99623.69
2024-03-12T10:57:08.562Z,99630.00
2024-03-12T10:59:41.057Z,99635.47
2024-03-12T11:02:15.159Z,99631.78
2024-03-12T11:04:53.933Z,99628.28
2024-03-12T11:07:24.981Z,99624.56
2024-03-12T11:09:55.903Z,99628.19
2024-03-12T11:12:27.379Z,99634.28
2024-03-12T11:14:58.733Z,99642.44
2024-03-12T11:17:34.067Z,99647.09
2024-03-12T11:20:07.337Z,99653.78
2024-03-12T11:22:38.762Z,99660.22
2024-03-12T11:25:11.089Z,99654.16
2024-03-12T11:27:42.930Z,99656.69
2024-03-12T11:30:21.048Z,99642.09
2024-03-12T11:32:55.151Z,99645.66
2024-03-12T11:35:34.601Z,99654.81
2024-03-12T11:38:12.502Z,99660.84
2024-03-12T11:40:52.745Z,99650.66
2024-03-12T11:43:41.187Z,99637.34
2024-03-12T11:46:12.628Z,99656.56
2024-03-12T11:48:47.038Z,99657.84
2024-03-12T11:51:17.625Z,99652.25
2024-03-12T11:53:50.780Z,99654.81
2024-03-12T11:56:23.543Z,99652.94
2024-03-12T11:59:02.552Z,99660.91
2024-03-12T12:01:37.538Z,99655.09
2024-03-12T12:04:13.803Z,99664.31
2024-03-12T12:06:44.725Z,99665.56
2024-03-12T12:09:15.653Z,99666.63
2024-03-12T12:11:46.063Z,99666.81
2024-03-12T12:14:18.855Z,99663.72
2024-03-12T12:16:53.918Z,99668.75
2024-03-12T12:19:32.308Z,99667.28
2024-03-12T12:22:09.169Z,99667.09
2024-03-12T12:24:42.876Z,99675.50
2024-03-12T12:27:13.638Z,99683.88
2024-03-12T12:29:44.240Z,99684.28
2024-03-12T12:32:16.411Z,99678.03
2024-03-12T12:34:49.369Z,99678.03
2024-03-12T12:37:23.264Z,99697.28
2024-03-12T12:39:54.847Z,99695.00
2024-03-12T12:42:25.851Z,99693.53
2024-03-12T12:44:58.251Z,99688.72
2024-03-12T12:47:29.130Z,99682.25
2024-03-12T12:50:02.548Z,99682.47
2024-03-12T12:52:32.869Z,99682.25
2024-03-12T12:55:05.554Z,99670.75
2024-03-12T12:57:43.923Z,99667.63
2024-03-12T13:00:24.856Z,99672.22
2024-03-12T13:02:55.253Z,99678.69
2024-03-12T13:05:28.477Z,99682.47
2024-03-12T13:07:59.679Z,99682.69
2024-03-12T13:10:32.130Z,99684.56
2024-03-12T13:13:04.862Z,99682.88
2024-03-12T13:15:37.484Z,99684.94
2024-03-12T13:18:08.916Z,99692.69
2024-03-12T13:20:42.799Z,99691.44
2024-03-12T13:23:13.651Z,99693.94
2024-03-12T13:25:46.717Z,99688.09
2024-03-12T13:28:19.394Z,99692.28
2024-03-12T13:30:50.331Z,99695.00
2024-03-12T13:33:20.879Z,99701.88
2024-03-12T13:35:57.111Z,99705.66
2024-03-12T13:38:28.418Z,99694.56
2024-03-12T13:41:01.425Z,99702.28
2024-03-12T13:43:32.145Z,99700.63
2024-03-12T13:46:02.785Z,99703.56
2024-03-12T13:48:33.423Z,99705.66
2024-03-12T13:51:09.158Z,99710.25
2024-03-12T13:53:40.371Z,99709.84
2024-03-12T13:56:12.266Z,99712.38
2024-03-12T13:58:45.382Z,99715.72
2024-03-12T14:01:18.526Z,99717.59
2024-03-12T14:03:52.944Z,99714.88
2024-03-12T14:06:25.986Z,99714.03
2024-03-12T14:08:56.292Z,99714.44
2024-03-12T14:11:27.356Z,99714.25
2024-03-12T14:13:57.902Z,99719.88
2024-03-12T14:16:28.453Z,99716.34
2024-03-12T14:18:58.991Z,99720.31
2024-03-12T14:21:33.462Z,99722.19
2024-03-12T14:24:04.424Z,99725.97
2024-03-12T14:26:34.798Z,99719.91
2024-03-12T14:29:05.099Z,99721.56
2024-03-12T14:31:35.702Z,99719.47
2024-03-12T14:34:09.825Z,99720.13
2024-03-12T14:36:42.904Z,99716.34
2024-03-12T14:39:13.940Z,99726.16
2024-03-12T14:41:44.424Z,99720.13
2024-03-12T14:44:14.772Z,99727.00
2024-03-12T14:46:46.125Z,99729.31
2024-03-12T14:49:18.189Z,99724.50
2024-03-12T14:51:51.535Z,99717.38
2024-03-12T14:54:21.886Z,99720.72
2024-03-12T14:56:52.680Z,99722.84
2024-03-12T14:59:23.067Z,99724.50
2024-03-12T15:01:54.254Z,99711.94
2024-03-12T15:04:24.910Z,99707.31
2024-03-12T15:06:58.276Z,99707.31
2024-03-12T15:09:30.808Z,99717.78
2024-03-12T15:12:01.946Z,99715.91
2024-03-12T15:14:33.082Z,99723.84
2024-03-12T15:17:03.364Z,99720.50
2024-03-12T15:19:33.779Z,99736.81
2024-03-12T15:22:07.286Z,99727.63
2024-03-12T15:24:39.813Z,99730.34
2024-03-12T15:27:12.208Z,99732.84
2024-03-12T15:29:45.616Z,99731.19
2024-03-12T15:32:16.209Z,99734.53
2024-03-12T15:34:46.813Z,99736.00
2024-03-12T15:37:19.853Z,99729.09
2024-03-12T15:39:50.263Z,99730.16
2024-03-12T15:42:20.548Z,99736.84
2024-03-12T15:44:50.869Z,99736.00
2024-03-12T15:47:22.027Z,99748.75
2024-03-12T15:49:52.332Z,99748.75
2024-03-12T15:52:25.238Z,99753.78
2024-03-12T15:54:55.631Z,99749.19
2024-03-12T15:57:26.254Z,99749.59
2024-03-12T15:59:56.594Z,99748.97
2024-03-12T16:02:28.251Z,99750.44
2024-03-12T16:04:58.932Z,99751.44
2024-03-12T16:07:31.829Z,99747.69
2024-03-12T16:10:02.194Z,99753.75
2024-03-12T16:12:32.545Z,99750.81
2024-03-12T16:15:02.968Z,99749.38
2024-03-12T16:17:36.312Z,99735.78
2024-03-12T16:20:14.466Z,99743.31
2024-03-12T16:22:48.307Z,99745.19
2024-03-12T16:25:18.840Z,99744.97
2024-03-12T16:27:49.457Z,99739.75
2024-03-12T16:30:20.301Z,99742.47
2024-03-12T16:32:50.737Z,99739.34
2024-03-12T16:35:21.028Z,99731.59
2024-03-12T16:37:54.003Z,99731.59
2024-03-12T16:40:25.020Z,99738.69
2024-03-12T16:42:57.320Z,99744.13
2024-03-12T16:45:28.217Z,99742.47
2024-03-12T16:47:58.590Z,99747.47
2024-03-12T16:50:28.979Z,99744.53
2024-03-12T16:53:01.892Z,99753.34
2024-03-12T16:55:33.739Z,99748.53
2024-03-12T16:58:05.135Z,99753.31
2024-03-12T17:00:38.568Z,99751.88
2024-03-12T17:03:10.816Z,99751.44
2024-03-12T17:05:42.112Z,99756.25
2024-03-12T17:08:15.823Z,99757.72
2024-03-12T17:10:47.186Z,99756.69
2024-03-12T17:13:19.012Z,99761.28
2024-03-12T17:15:51.006Z,99766.91
2024-03-12T17:18:22.438Z,99764.41
2024-03-12T17:20:55.832Z,99772.97
2024-03-12T17:23:29.640Z,99774.63
2024-03-12T17:26:00.388Z,99774.00
2024-03-12T17:28:32.698Z,99772.34
2024-03-12T17:31:04.370Z,99783.22
2024-03-12T17:33:35.634Z,99781.53
2024-03-12T17:36:08.845Z,99779.44
2024-03-12T17:38:44.215Z,99787.78
2024-03-12T17:41:15.545Z,99784.22
2024-03-12T17:43:46.831Z,99784.44
2024-03-12T17:46:23.451Z,99783.16
2024-03-12T17:48:55.057Z,99787.56
2024-03-12T17:51:26.407Z,99793.81
2024-03-12T17:54:02.819Z,99787.13
2024-03-12T17:56:37.586Z,99796.06
2024-03-12T17:59:08.875Z,99791.47
2024-03-12T18:01:39.626Z,99797.28
2024-03-12T18:04:11.702Z,99802.31
2024-03-12T18:06:47.729Z,99792.50
2024-03-12T18:09:26.092Z,99803.38
2024-03-12T18:11:58.821Z,99809.84
2024-03-12T18:14:30.591Z,99809.19
2024-03-12T18:17:00.964Z,99812.28
2024-03-12T18:19:31.251Z,99805.84
2024-03-12T18:22:02.434Z,99806.22
2024-03-12T18:24:35.415Z,99809.75
2024-03-12T18:27:05.965Z,99808.28
2024-03-12T18:29:36.334Z,99804.13
2024-03-12T18:32:07.532Z,99807.22
2024-03-12T18:34:37.966Z,99810.13
2024-03-12T18:37:11.332Z,99818.28
2024-03-12T18:39:46.382Z,99807.84
2024-03-12T18:42:16.515Z,99814.28
2024-03-12T18:44:47.044Z,99821.59
2024-03-12T18:47:20.751Z,99829.94
2024-03-12T18:49:53.121Z,99837.06
2024-03-12T18:52:24.440Z,99835.38
2024-03-12T18:54:58.359Z,99833.91
2024-03-12T18:57:29.989Z,99835.75
2024-03-12T19:00:05.471Z,99831.41
2024-03-12T19:02:37.998Z,99831.19
2024-03-12T19:05:12.808Z,99833.06
2024-03-12T19:07:44.947Z,99836.63
2024-03-12T19:10:20.252Z,99831.16
2024-03-12T19:12:51.705Z,99834.69
2024-03-12T19:15:24.185Z,99840.34
2024-03-12T19:17:56.152Z,99839.03
2024-03-12T19:20:27.253Z,99850.31
2024-03-12T19:22:58.904Z,99840.44
2024-03-12T19:25:31.926Z,99843.16
2024-03-12T19:28:04.619Z,99846.91
2024-03-12T19:30:36.016Z,99847.72
2024-03-12T19:33:07.868Z,99848.16
2024-03-12T19:35:40.284Z,99850.22
2024-03-12T19:38:12.502Z,99847.31
2024-03-12T19:40:46.815Z,99858.38
2024-03-12T19:43:18.023Z,99858.81
2024-03-12T19:45:51.077Z,99857.31
2024-03-12T19:48:22.529Z,99857.31
2024-03-12T19:50:53.467Z,99863.38
2024-03-12T19:53:23.784Z,99862.75
2024-03-12T19:55:56.754Z,99862.75
2024-03-12T19:58:27.322Z,99860.81
2024-03-12T20:00:57.888Z,99858.56
2024-03-12T20:03:28.245Z,99861.28
2024-03-12T20:05:59.785Z,99860.63
2024-03-12T20:08:30.115Z,99857.50
2024-03-12T20:11:03.060Z,99866.88
2024-03-12T20:13:36.894Z,99879.03
2024-03-12T20:16:12.579Z,99880.25
2024-03-12T20:18:44.640Z,99880.66
2024-03-12T20:21:15.097Z,99872.31
2024-03-12T20:23:45.730Z,99874.19
2024-03-12T20:26:18.857Z,99876.72
2024-03-12T20:28:49.961Z,99879.44
2024-03-12T20:31:21.142Z,99876.91
2024-03-12T20:33:52.382Z,99885.06
2024-03-12T20:36:23.310Z,99884.88
2024-03-12T20:38:53.662Z,99891.31
2024-03-12T20:41:26.807Z,99890.84
2024-03-12T20:43:58.763Z,99898.81
2024-03-12T20:46:32.271Z,99903.00
2024-03-12T20:49:02.746Z,99894.22
2024-03-12T20:51:33.125Z,99897.13
2024-03-12T20:54:04.624Z,99892.56
2024-03-12T20:56:37.501Z,99886.94
2024-03-12T20:59:08.508Z,99887.75
2024-03-12T21:01:39.533Z,99884.00
2024-03-12T21:04:11.044Z,99883.56
2024-03-12T21:06:42.359Z,99887.75
2024-03-12T21:09:23.080Z,99884.88
2024-03-12T21:11:56.486Z,99885.88
2024-03-12T21:14:27.290Z,99894.03
2024-03-12T21:16:58.555Z,99890.66
2024-03-12T21:19:29.184Z,99896.28
2024-03-12T21:22:01.108Z,99901.44
2024-03-12T21:24:33.425Z,99909.03
2024-03-12T21:27:08.394Z,99912.00
2024-03-12T21:29:41.263Z,99906.13
2024-03-12T21:32:11.912Z,99903.59
2024-03-12T21:34:44.277Z,99907.34
2024-03-12T21:37:14.807Z,99906.69
2024-03-12T21:39:47.412Z,99903.59
2024-03-12T21:42:21.668Z,99891.91
2024-03-12T21:44:55.222Z,99897.78
2024-03-12T21:47:25.626Z,99907.34
2024-03-12T21:49:57.203Z,99897.13
2024-03-12T21:52:29.154Z,99891.06
2024-03-12T21:54:59.960Z,99891.84
2024-03-12T21:57:33.538Z,99894.81
2024-03-12T22:00:12.231Z,99891.06
2024-03-12T22:02:43.016Z,99891.06
2024-03-12T22:05:16.013Z,99894.81
2024-03-12T22:07:50.279Z,99895.19
2024-03-12T22:10:21.217Z,99894.38
2024-03-12T22:12:54.146Z,99890.03
2024-03-12T22:15:26.044Z,99888.34
2024-03-12T22:17:57.520Z,99892.75
2024-03-12T22:20:27.883Z,99890.22
2024-03-12T22:22:58.386Z,99890.81
2024-03-12T22:25:31.004Z,99885.84
2024-03-12T22:28:03.964Z,99883.97
2024-03-12T22:30:34.339Z,99880.59
2024-03-12T22:33:04.877Z,99877.44
2024-03-12T22:35:35.613Z,99883.50
2024-03-12T22:38:06.871Z,99886.41
2024-03-12T22:40:38.804Z,99881.41
2024-03-12T22:43:13.164Z,99890.56
2024-03-12T22:45:45.995Z,99902.44
2024-03-12T22:48:16.958Z,99895.09
2024-03-12T22:50:48.169Z,99888.63
2024-03-12T22:53:19.212Z,99900.13
2024-03-12T22:55:50.016Z,99891.34
2024-03-12T22:58:24.021Z,99900.50
2024-03-12T23:00:56.409Z,99902.56
2024-03-12T23:03:29.258Z,99911.16
2024-03-12T23:06:00.613Z,99913.06
2024-03-12T23:08:32.357Z,99906.75
2024-03-12T23:11:02.865Z,99911.09
2024-03-12T23:13:35.818Z,99905.94
2024-03-12T23:16:08.230Z,99916.78
2024-03-12T23:18:38.975Z,99910.53
2024-03-12T23:21:11.672Z,99915.75
2024-03-12T23:23:41.974Z,99909.69
2024-03-12T23:26:12.315Z,99909.69
2024-03-12T23:28:45.238Z,99914.72
2024-03-12T23:31:16.305Z,99911.53
2024-03-12T23:33:46.880Z,99913.25
2024-03-12T23:36:22.494Z,99923.03
2024-03-12T23:38:53.046Z,99923.44
2024-03-12T23:41:23.882Z,99924.28
2024-03-12T23:43:57.449Z,99935.78
2024-03-12T23:46:27.845Z,99927.63
2024-03-12T23:49:00.795Z,99929.69
2024-03-12T23:51:32.215Z,99940.19
2024-03-12T23:54:02.539Z,99929.97
2024-03-12T23:56:32.866Z,99926.81
2024-03-12T23:59:06.910Z,99926.41
